Time;durP1;ratioP1;P1;durP2;ratioP2;P2;SDS_P1;SDS_P2;PMS_P1;PMS_P2;Temp;Humidity;BMP_temperature;BMP_pressure;BME280_temperature;BME280_humidity;BME280_pressure;Samples;Min_cycle;Max_cycle;Signal;HPM_P1;HPM_P2
2021/03/14 00:01:27;;;;;;;29.83;16.17;;;;;;;6.87;66.37;94391.19;5011612;28;20177;-72
2021/03/14 00:03:53;;;;;;;28.93;15.53;;;;;;;7.05;65.85;94395.13;5026581;28;20639;-73
2021/03/14 00:06:18;;;;;;;32.03;17.10;;;;;;;6.53;67.99;94395.06;5011401;28;20197;-71
2021/03/14 00:08:43;;;;;;;33.40;18.23;;;;;;;7.02;65.93;94387.09;5011550;28;20683;-73
2021/03/14 00:11:09;;;;;;;39.37;17.20;;;;;;;7.06;66.14;94374.66;5011433;28;20243;-71
2021/03/14 00:13:36;;;;;;;34.60;17.23;;;;;;;6.29;68.69;94379.91;5011540;28;20674;-71
2021/03/14 00:16:03;;;;;;;34.27;17.23;;;;;;;6.83;67.06;94382.34;5011246;28;20184;-71
2021/03/14 00:18:38;;;;;;;35.23;18.10;;;;;;;7.01;66.41;94380.97;5010318;28;20419;-73
2021/03/14 00:21:03;;;;;;;28.67;16.73;;;;;;;7.07;65.91;94374.38;5011121;28;20419;-74
2021/03/14 00:23:29;;;;;;;31.00;16.93;;;;;;;6.66;67.30;94378.03;5011444;28;20482;-75
2021/03/14 00:25:55;;;;;;;27.17;16.67;;;;;;;6.82;66.47;94375.47;5011142;28;20303;-74
2021/03/14 00:28:21;;;;;;;32.43;17.20;;;;;;;6.76;66.69;94366.19;5014431;28;20184;-74
2021/03/14 00:30:46;;;;;;;29.20;16.77;;;;;;;6.89;66.30;94368.50;5014943;28;20267;-73
2021/03/14 00:33:12;;;;;;;32.53;17.00;;;;;;;6.88;65.76;94368.84;5015089;28;20224;-73
2021/03/14 00:35:38;;;;;;;33.63;15.73;;;;;;;7.11;64.89;94366.47;5014854;28;20230;-74
2021/03/14 00:38:03;;;;;;;30.40;15.23;;;;;;;6.87;65.32;94357.44;5014769;28;20223;-71
2021/03/14 00:40:29;;;;;;;35.97;16.93;;;;;;;7.01;64.76;94343.03;5014970;28;20187;-73
2021/03/14 00:42:59;;;;;;;34.30;16.17;;;;;;;6.95;65.03;94355.78;5014673;28;20625;-73
2021/03/14 00:45:24;;;;;;;27.40;16.60;;;;;;;6.45;66.49;94343.66;5014784;28;20753;-71
2021/03/14 00:47:50;;;;;;;32.20;17.07;;;;;;;6.54;67.10;94352.28;5014563;28;20465;-72
2021/03/14 00:50:16;;;;;;;31.53;16.47;;;;;;;6.64;66.25;94340.44;5014673;28;20640;-71
2021/03/14 00:52:41;;;;;;;30.63;16.07;;;;;;;5.94;69.35;94347.66;5014525;28;20307;-72
2021/03/14 00:55:07;;;;;;;34.30;18.63;;;;;;;5.56;71.19;94343.38;5014665;28;20196;-71
2021/03/14 00:57:32;;;;;;;36.47;18.70;;;;;;;5.96;70.42;94338.31;5029251;28;20197;-71
2021/03/14 00:59:58;;;;;;;35.17;18.80;;;;;;;6.16;68.84;94341.19;5014533;28;20247;-73
2021/03/14 01:02:24;;;;;;;36.97;18.77;;;;;;;5.60;70.28;94335.53;5014586;28;20180;-71
2021/03/14 01:04:49;;;;;;;33.10;17.57;;;;;;;5.29;70.76;94348.09;5014303;28;20667;-70
2021/03/14 01:07:15;;;;;;;29.43;17.23;;;;;;;5.67;69.92;94336.56;5012850;28;20197;-71
2021/03/14 01:09:40;;;;;;;29.50;15.67;;;;;;;5.85;68.34;94350.41;5013127;28;20226;-71
2021/03/14 01:12:07;;;;;;;28.47;16.33;;;;;;;6.02;68.29;94342.28;5014353;28;20180;-70
2021/03/14 01:14:32;;;;;;;33.70;16.57;;;;;;;6.41;67.41;94342.00;5014011;28;20177;-70
2021/03/14 01:16:58;;;;;;;33.83;17.30;;;;;;;6.14;67.14;94336.22;5014420;28;20428;-71
2021/03/14 01:19:23;;;;;;;30.57;17.37;;;;;;;6.45;66.89;94348.94;5013970;28;20550;-73
2021/03/14 01:21:49;;;;;;;28.60;15.60;;;;;;;6.55;66.35;94343.22;5012948;28;20173;-73
2021/03/14 01:24:14;;;;;;;28.63;15.30;;;;;;;6.14;67.55;94341.53;5013876;28;20177;-72
2021/03/14 01:26:40;;;;;;;30.83;16.20;;;;;;;6.47;66.83;94348.63;5012881;28;20209;-71
2021/03/14 01:29:05;;;;;;;38.97;17.87;;;;;;;6.51;66.71;94344.19;5014065;28;20556;-71
2021/03/14 01:31:31;;;;;;;32.33;17.17;;;;;;;6.55;66.05;94343.22;5013781;28;20201;-72
2021/03/14 01:33:56;;;;;;;36.13;16.43;;;;;;;6.57;66.32;94340.25;5014048;28;20197;-71
2021/03/14 01:36:22;;;;;;;33.00;17.77;;;;;;;6.60;66.02;94332.38;5013689;28;20660;-72
2021/03/14 01:38:47;;;;;;;33.67;18.37;;;;;;;5.98;68.12;94330.78;5012551;28;20181;-73
2021/03/14 01:41:13;;;;;;;32.33;16.80;;;;;;;6.39;67.19;94331.72;5013653;28;20745;-73
2021/03/14 01:43:38;;;;;;;31.37;17.73;;;;;;;6.56;66.19;94330.72;5013862;28;20181;-74
2021/03/14 01:46:04;;;;;;;39.63;20.50;;;;;;;6.22;67.37;94329.28;5013400;28;20205;-71
2021/03/14 01:48:30;;;;;;;47.00;24.57;;;;;;;5.66;69.60;94332.34;5013636;28;20656;-71
2021/03/14 01:50:55;;;;;;;33.00;18.20;;;;;;;5.28;69.31;94324.59;5012419;28;20435;-73
2021/03/14 01:53:21;;;;;;;38.40;19.37;;;;;;;4.94;71.38;94323.00;5011934;28;20224;-73
2021/03/14 01:55:47;;;;;;;39.63;21.00;;;;;;;5.19;71.32;94322.03;5012316;28;20652;-71
2021/03/14 01:58:13;;;;;;;42.40;22.37;;;;;;;5.61;69.72;94318.53;5012139;28;20175;-73
2021/03/14 02:00:39;;;;;;;60.57;26.10;;;;;;;5.88;68.29;94330.41;4995943;28;20500;-71
2021/03/14 02:03:04;;;;;;;50.97;26.63;;;;;;;6.00;68.16;94320.63;5013044;28;20177;-71
2021/03/14 02:05:30;;;;;;;59.50;27.03;;;;;;;5.89;68.26;94327.44;5013272;28;20467;-71
2021/03/14 02:07:55;;;;;;;60.17;28.13;;;;;;;5.96;67.79;94325.06;5013075;28;20181;-74
2021/03/14 02:10:28;;;;;;;57.73;27.10;;;;;;;6.19;67.36;94329.94;4995757;28;20204;-71
2021/03/14 02:13:02;;;;;;;57.80;28.27;;;;;;;6.39;66.07;94331.72;5011845;28;20232;-71
2021/03/14 02:15:28;;;;;;;54.33;27.97;;;;;;;5.95;68.00;94320.88;5013193;28;20493;-71
2021/03/14 02:17:54;;;;;;;64.23;31.20;;;;;;;5.53;69.33;94318.28;5011742;28;20834;-73
2021/03/14 02:20:22;;;;;;;60.40;30.70;;;;;;;5.64;68.70;94302.75;5011856;28;20745;-71
2021/03/14 02:22:48;;;;;;;66.27;30.53;;;;;;;6.08;67.50;94319.78;5011378;28;20200;-72
2021/03/14 02:25:29;;;;;;;62.70;31.30;;;;;;;6.28;67.07;94322.66;5011837;28;20467;-73
2021/03/14 02:27:54;;;;;;;61.93;30.90;;;;;;;6.32;66.89;94320.88;5011440;28;20423;-73
2021/03/14 02:30:20;;;;;;;66.10;32.63;;;;;;;6.21;67.95;94322.44;5011629;28;20434;-74
2021/03/14 02:32:46;;;;;;;67.03;33.70;;;;;;;6.14;68.42;94306.31;5011724;28;20656;-71
2021/03/14 02:35:11;;;;;;;64.73;31.93;;;;;;;6.29;68.23;94319.69;5011382;28;20450;-71
2021/03/14 02:37:37;;;;;;;58.10;29.57;;;;;;;6.51;66.57;94321.13;5012703;28;20169;-72
2021/03/14 02:40:04;;;;;;;62.10;28.63;;;;;;;6.50;66.47;94303.63;5011368;28;20238;-73
2021/03/14 02:42:29;;;;;;;56.07;27.80;;;;;;;6.12;68.00;94319.09;5012818;28;20223;-71
2021/03/14 02:44:55;;;;;;;45.93;23.17;;;;;;;6.21;67.20;94317.13;5011199;28;20865;-71
2021/03/14 02:47:24;;;;;;;45.17;23.60;;;;;;;5.93;67.58;94320.41;5011075;28;20188;-73
2021/03/14 02:49:50;;;;;;;43.13;23.23;;;;;;;6.16;66.79;94328.72;5010087;28;20320;-71
2021/03/14 02:52:16;;;;;;;42.87;21.90;;;;;;;6.36;66.18;94319.13;5012211;28;20930;-71
2021/03/14 02:54:41;;;;;;;44.30;21.83;;;;;;;6.35;66.31;94322.91;5011118;28;20223;-71
2021/03/14 02:57:07;;;;;;;39.03;20.83;;;;;;;6.38;66.21;94321.44;5011302;28;20204;-71
2021/03/14 02:59:33;;;;;;;43.63;22.07;;;;;;;6.35;66.70;94317.59;5011259;28;20173;-71
2021/03/14 03:01:58;;;;;;;49.20;22.63;;;;;;;6.49;66.18;94312.72;5011022;28;20710;-71
2021/03/14 03:04:25;;;;;;;44.73;23.23;;;;;;;6.31;66.72;94314.81;5012288;28;20169;-71
2021/03/14 03:06:53;;;;;;;59.70;23.40;;;;;;;6.24;67.30;94311.94;5010737;28;20571;-72
2021/03/14 03:09:19;;;;;;;50.33;25.20;;;;;;;6.40;65.45;94311.25;5011059;28;20456;-74
2021/03/14 03:11:44;;;;;;;46.57;24.40;;;;;;;6.19;66.97;94300.78;5010921;28;20509;-72
2021/03/14 03:14:13;;;;;;;52.50;25.87;;;;;;;6.14;67.28;94296.47;5012223;28;20196;-71
2021/03/14 03:16:41;;;;;;;54.63;23.93;;;;;;;6.29;66.09;94308.31;5010800;28;20215;-73
2021/03/14 03:19:07;;;;;;;48.77;22.77;;;;;;;6.24;66.91;94301.34;5010951;28;20416;-71
2021/03/14 03:21:32;;;;;;;48.80;24.37;;;;;;;6.22;67.13;94303.53;5010415;28;20416;-71
2021/03/14 03:23:58;;;;;;;51.37;26.13;;;;;;;6.20;66.63;94303.09;5010875;28;20427;-73
2021/03/14 03:26:23;;;;;;;45.33;25.13;;;;;;;6.15;67.41;94299.91;5011711;28;20208;-72
2021/03/14 03:28:49;;;;;;;53.73;26.87;;;;;;;6.21;67.05;94309.16;5010921;28;20227;-71
2021/03/14 03:31:14;;;;;;;51.10;26.03;;;;;;;6.08;66.92;94303.88;5010817;28;20173;-71
2021/03/14 03:33:40;;;;;;;51.83;25.50;;;;;;;5.72;68.92;94301.88;5011706;28;20176;-71
2021/03/14 03:36:05;;;;;;;54.00;26.53;;;;;;;6.04;66.99;94297.66;5010269;28;20199;-70
2021/03/14 03:38:34;;;;;;;50.20;26.47;;;;;;;6.06;67.03;94300.78;5011545;28;20207;-72
2021/03/14 03:41:00;;;;;;;57.40;27.37;;;;;;;5.38;69.91;94296.94;5010606;28;20173;-74
2021/03/14 03:43:28;;;;;;;51.90;26.47;;;;;;;5.72;68.49;94298.47;5011724;28;20415;-72
2021/03/14 03:45:58;;;;;;;58.20;28.00;;;;;;;5.80;68.24;94292.31;5011756;28;20725;-72
2021/03/14 03:48:31;;;;;;;60.80;27.80;;;;;;;5.26;70.09;94285.19;5011485;28;20514;-74
2021/03/14 03:50:57;;;;;;;55.58;26.92;;;;;;;5.78;67.98;94289.19;5010380;28;20416;-72
2021/03/14 03:53:23;;;;;;;53.83;28.00;;;;;;;5.79;67.86;94298.72;4993630;28;20711;-72
2021/03/14 03:55:49;;;;;;;48.00;26.83;;;;;;;5.77;67.89;94287.66;5010193;28;20474;-73
2021/03/14 03:58:15;;;;;;;52.47;25.35;;;;;;;5.15;70.26;94289.34;5011196;28;20173;-74
2021/03/14 04:00:40;;;;;;;50.33;25.37;;;;;;;5.46;69.72;94290.81;5010490;28;20263;-71
2021/03/14 04:03:06;;;;;;;49.20;25.03;;;;;;;5.68;68.79;94282.47;5013047;28;20616;-72
2021/03/14 04:05:31;;;;;;;41.57;22.30;;;;;;;5.12;69.72;94287.38;5013921;28;20275;-71
2021/03/14 04:07:57;;;;;;;41.33;20.20;;;;;;;5.23;69.39;94293.03;5015372;28;20169;-71
2021/03/14 04:10:23;;;;;;;40.27;20.17;;;;;;;5.63;67.53;94287.22;5014221;28;20180;-73
2021/03/14 04:12:49;;;;;;;37.28;19.10;;;;;;;5.10;69.50;94291.41;5014173;28;20743;-73
2021/03/14 04:15:17;;;;;;;32.60;18.13;;;;;;;5.53;68.25;94281.22;5013875;28;20188;-72
2021/03/14 04:17:42;;;;;;;37.92;19.17;;;;;;;5.17;69.39;94276.59;5013869;28;20264;-73
2021/03/14 04:20:32;;;;;;;38.60;20.47;;;;;;;5.35;69.18;94256.03;5013776;28;20256;-72
2021/03/14 04:23:00;;;;;;;32.15;16.40;;;;;;;5.71;67.36;94268.56;4993336;28;20196;-72
2021/03/14 04:25:26;;;;;;;32.90;17.98;;;;;;;5.59;67.59;94268.53;4993002;28;20209;-72
2021/03/14 04:27:52;;;;;;;43.53;19.67;;;;;;;5.37;69.35;94269.69;4976639;28;20743;-73
2021/03/14 04:30:18;;;;;;;36.90;18.30;;;;;;;5.56;67.82;94274.50;4976940;28;20178;-72
2021/03/14 04:32:45;;;;;;;38.03;20.93;;;;;;;5.76;66.82;94259.63;4992884;28;20186;-73
2021/03/14 04:35:10;;;;;;;36.17;18.77;;;;;;;5.79;66.54;94272.22;4960675;28;20429;-74
2021/03/14 04:37:37;;;;;;;39.00;19.73;;;;;;;5.78;66.68;94263.50;4977009;28;20428;-69
2021/03/14 04:40:04;;;;;;;35.70;18.73;;;;;;;5.91;66.92;94269.63;4960101;28;20604;-73
2021/03/14 04:42:29;;;;;;;33.40;19.20;;;;;;;5.94;66.08;94254.94;4974830;28;20530;-73
2021/03/14 04:44:55;;;;;;;44.10;19.30;;;;;;;5.57;66.93;94258.28;4976396;28;20537;-70
2021/03/14 04:47:20;;;;;;;38.47;19.07;;;;;;;4.85;70.36;94254.28;4975862;28;20229;-72
2021/03/14 04:49:46;;;;;;;42.13;23.42;;;;;;;5.51;68.42;94259.59;4991209;28;20531;-73
2021/03/14 04:52:11;;;;;;;40.97;20.90;;;;;;;5.89;66.94;94261.19;4992578;28;20178;-70
2021/03/14 04:54:37;;;;;;;36.03;19.83;;;;;;;6.00;66.20;94243.78;4976675;28;20244;-71
2021/03/14 04:57:02;;;;;;;39.53;20.37;;;;;;;6.01;66.41;94255.94;4976591;28;20611;-70
2021/03/14 04:59:28;;;;;;;39.73;19.23;;;;;;;5.99;67.08;94255.47;4983270;28;20189;-70
2021/03/14 05:01:54;;;;;;;39.30;19.80;;;;;;;6.00;66.29;94259.69;5013166;28;20694;-70
2021/03/14 05:04:19;;;;;;;36.10;20.73;;;;;;;5.99;66.86;94262.66;5014372;28;20177;-70
2021/03/14 05:06:45;;;;;;;40.33;21.13;;;;;;;5.77;66.89;94256.66;4996619;28;20212;-70
2021/03/14 05:09:14;;;;;;;44.40;23.43;;;;;;;5.86;66.73;94264.50;5013162;28;20602;-70
2021/03/14 05:11:41;;;;;;;44.30;20.53;;;;;;;5.64;67.53;94262.25;5014490;28;20177;-69
2021/03/14 05:14:07;;;;;;;41.73;20.60;;;;;;;5.89;66.98;94257.75;5013613;28;20416;-70
2021/03/14 05:16:33;;;;;;;37.70;20.67;;;;;;;5.95;66.42;94254.63;5013231;28;20442;-70
2021/03/14 05:18:58;;;;;;;34.80;19.73;;;;;;;5.99;66.80;94260.78;5012890;28;20169;-71
2021/03/14 05:21:23;;;;;;;44.47;22.30;;;;;;;5.91;66.97;94256.38;5013196;28;20707;-70
2021/03/14 05:23:49;;;;;;;38.20;19.73;;;;;;;6.02;67.19;94248.75;5012684;28;20174;-70
2021/03/14 05:26:14;;;;;;;40.30;20.70;;;;;;;5.92;67.52;94252.63;5013973;28;20216;-70
2021/03/14 05:28:41;;;;;;;38.70;20.00;;;;;;;6.02;67.82;94249.53;5013803;28;20169;-71
2021/03/14 05:31:25;;;;;;;35.43;19.33;;;;;;;6.03;67.87;94259.03;5014168;28;20188;-71
2021/03/14 05:33:50;;;;;;;38.28;19.95;;;;;;;6.01;68.35;94245.34;5013579;28;20542;-71
2021/03/14 05:36:16;;;;;;;40.07;19.27;;;;;;;6.26;66.34;94250.63;5012777;28;20260;-70
2021/03/14 05:38:41;;;;;;;18.63;11.00;;;;;;;6.49;64.59;94248.28;5013798;28;20188;-72
2021/03/14 05:41:07;;;;;;;22.07;11.77;;;;;;;6.46;63.97;94238.34;5013323;28;20177;-71
2021/03/14 05:43:32;;;;;;;16.70;10.03;;;;;;;6.66;63.76;94252.56;5012664;28;20173;-70
2021/03/14 05:45:58;;;;;;;17.23;11.17;;;;;;;6.55;64.35;94260.22;5012384;28;20691;-69
2021/03/14 05:48:23;;;;;;;18.57;10.77;;;;;;;6.51;63.83;94246.84;5013562;28;20180;-69
2021/03/14 05:50:49;;;;;;;21.20;10.80;;;;;;;6.46;64.51;94255.03;5013260;28;20169;-69
2021/03/14 05:53:15;;;;;;;22.87;12.60;;;;;;;6.61;64.70;94245.59;5013435;28;20220;-71
2021/03/14 05:55:40;;;;;;;17.33;10.60;;;;;;;6.72;63.61;94252.00;5012073;28;20606;-71
2021/03/14 05:58:06;;;;;;;15.30;10.17;;;;;;;6.79;63.32;94254.06;4995948;28;20470;-71
2021/03/14 06:00:31;;;;;;;19.57;9.87;;;;;;;6.73;62.90;94248.22;5012030;28;20189;-70
2021/03/14 06:03:00;;;;;;;16.50;10.00;;;;;;;6.99;62.16;94263.75;4995785;28;20193;-74
2021/03/14 06:05:30;;;;;;;20.60;10.33;;;;;;;6.64;64.15;94244.94;5011211;28;20209;-72
2021/03/14 06:07:55;;;;;;;27.30;11.67;;;;;;;6.78;64.49;94247.22;5011696;28;20428;-73
2021/03/14 06:10:21;;;;;;;26.13;12.60;;;;;;;7.03;63.97;94250.59;5013091;28;20486;-71
2021/03/14 06:12:47;;;;;;;19.20;10.83;;;;;;;7.27;62.47;94253.16;5013243;28;20177;-71
2021/03/14 06:15:13;;;;;;;21.50;12.67;;;;;;;7.27;62.40;94252.38;5013257;28;20172;-74
2021/03/14 06:17:38;;;;;;;18.97;12.23;;;;;;;7.38;62.75;94253.44;5012855;28;20181;-73
2021/03/14 06:20:05;;;;;;;22.37;11.97;;;;;;;7.44;62.45;94265.34;5012918;28;20177;-74
2021/03/14 06:22:31;;;;;;;19.77;10.77;;;;;;;7.67;61.03;94254.94;5012782;28;20272;-75
2021/03/14 06:24:56;;;;;;;24.63;11.93;;;;;;;7.61;61.56;94259.72;5012340;28;20518;-76
2021/03/14 06:27:36;;;;;;;21.03;12.60;;;;;;;7.71;61.24;94260.34;5012640;28;20587;-75
2021/03/14 06:30:06;;;;;;;21.57;11.93;;;;;;;7.84;61.27;94259.91;5012968;28;20260;-71
2021/03/14 06:32:31;;;;;;;18.43;11.67;;;;;;;7.76;62.14;94262.75;5011250;28;20495;-76
2021/03/14 06:35:11;;;;;;;19.33;13.00;;;;;;;7.59;63.08;94259.31;5012796;28;20527;-75
2021/03/14 06:37:36;;;;;;;27.47;13.27;;;;;;;7.72;62.82;94267.97;5012478;28;20216;-71
2021/03/14 06:40:10;;;;;;;22.63;12.93;;;;;;;8.03;62.01;94261.91;5011550;28;20454;-72
2021/03/14 06:42:39;;;;;;;20.40;11.50;;;;;;;8.11;61.62;94263.63;5012598;28;20165;-73
2021/03/14 06:45:06;;;;;;;29.63;15.43;;;;;;;8.10;62.43;94256.00;5012654;28;20416;-71
2021/03/14 06:47:42;;;;;;;31.63;16.93;;;;;;;8.32;62.40;94273.22;5012332;28;20510;-71
2021/03/14 06:50:08;;;;;;;39.23;20.87;;;;;;;8.30;61.13;94276.22;5005142;28;20431;-72
2021/03/14 06:52:34;;;;;;;34.87;19.87;;;;;;;8.47;61.01;94267.13;5008587;28;20468;-75
2021/03/14 06:55:00;;;;;;;39.03;19.73;;;;;;;8.46;60.28;94266.34;5005076;28;20825;-73
2021/03/14 06:57:25;;;;;;;39.67;20.43;;;;;;;8.44;59.86;94260.59;5011963;28;20162;-75
2021/03/14 06:59:52;;;;;;;33.50;19.80;;;;;;;8.16;61.81;94268.69;5008396;28;20256;-77
2021/03/14 07:02:24;;;;;;;41.00;18.87;;;;;;;8.37;60.63;94254.38;5011872;28;20173;-72
2021/03/14 07:05:00;;;;;;;33.80;19.20;;;;;;;8.54;60.55;94267.28;5012175;28;20926;-74
2021/03/14 07:07:31;;;;;;;34.50;18.97;;;;;;;8.66;60.18;94250.44;5012088;28;20470;-72
2021/03/14 07:10:11;;;;;;;34.17;19.03;;;;;;;8.97;59.35;94262.88;5012090;28;20953;-74
2021/03/14 07:12:42;;;;;;;32.53;19.20;;;;;;;9.05;60.57;94261.91;5011712;28;20411;-72
2021/03/14 07:15:11;;;;;;;34.37;19.37;;;;;;;9.52;58.87;94267.00;5011932;28;20451;-72
2021/03/14 07:17:36;;;;;;;42.37;20.30;;;;;;;9.68;58.77;94260.81;5011863;28;20416;-74
2021/03/14 07:20:12;;;;;;;38.70;21.50;;;;;;;9.48;57.72;94263.50;5010712;28;20933;-72
2021/03/14 07:22:38;;;;;;;40.67;20.67;;;;;;;9.75;57.30;94255.59;5011735;28;20172;-72
2021/03/14 07:25:25;;;;;;;40.03;20.73;;;;;;;9.70;57.63;94246.00;5011694;28;20460;-73
2021/03/14 07:27:51;;;;;;;33.80;18.63;;;;;;;10.04;57.36;94241.63;5010733;28;20192;-71
2021/03/14 07:30:17;;;;;;;34.90;18.77;;;;;;;9.98;56.52;94236.94;5011665;28;20949;-72
2021/03/14 07:32:43;;;;;;;37.27;18.97;;;;;;;10.13;57.25;94230.72;5011775;28;20473;-73
2021/03/14 07:35:09;;;;;;;35.63;19.97;;;;;;;10.18;56.84;94237.66;5011700;28;20420;-72
2021/03/14 07:37:34;;;;;;;42.63;20.60;;;;;;;10.04;57.06;94224.84;5011295;28;20169;-72
2021/03/14 07:39:59;;;;;;;32.77;18.40;;;;;;;10.33;55.53;94240.22;5011620;28;20169;-74
2021/03/14 07:42:25;;;;;;;30.17;18.37;;;;;;;10.48;55.23;94230.50;5011472;28;20176;-75
2021/03/14 07:44:51;;;;;;;32.83;18.47;;;;;;;10.63;55.31;94226.13;5010324;28;20655;-74
2021/03/14 07:47:17;;;;;;;31.63;18.67;;;;;;;10.82;55.51;94223.31;5011509;28;20199;-74
2021/03/14 07:49:48;;;;;;;30.90;18.27;;;;;;;10.59;55.51;94218.06;5011309;28;20208;-74
2021/03/14 07:52:17;;;;;;;36.17;20.88;;;;;;;10.83;54.66;94216.06;4993622;28;20433;-72
2021/03/14 07:54:54;;;;;;;28.90;15.93;;;;;;;11.03;55.39;94212.16;5010873;28;20652;-72
2021/03/14 07:57:22;;;;;;;26.73;15.63;;;;;;;11.16;54.28;94210.00;5011661;28;20802;-70
2021/03/14 07:59:47;;;;;;;25.47;15.17;;;;;;;10.78;55.07;94211.09;4993575;28;20427;-73
2021/03/14 08:02:19;;;;;;;31.47;13.67;;;;;;;10.97;54.50;94212.84;5011485;28;20419;-73
2021/03/14 08:04:45;;;;;;;23.10;13.43;;;;;;;11.25;53.13;94218.50;5011205;28;20177;-71
2021/03/14 08:07:11;;;;;;;36.57;21.77;;;;;;;11.17;53.63;94210.75;5011294;28;20463;-74
2021/03/14 08:09:43;;;;;;;40.70;22.80;;;;;;;10.90;53.65;94200.16;5011225;28;20800;-71
2021/03/14 08:12:25;;;;;;;40.30;23.33;;;;;;;10.67;55.23;94178.91;5011394;28;20165;-72
2021/03/14 08:14:55;;;;;;;47.53;23.80;;;;;;;10.99;55.24;94194.53;4994148;28;20415;-71
2021/03/14 08:17:22;;;;;;;42.40;23.27;;;;;;;11.23;53.66;94188.72;5010423;28;20933;-73
2021/03/14 08:19:48;;;;;;;40.17;22.77;;;;;;;11.26;53.79;94173.84;5010810;28;20808;-71
2021/03/14 08:22:46;;;;;;;39.57;23.03;;;;;;;11.52;54.74;94197.03;5006968;28;20431;-71
2021/03/14 08:25:40;;;;;;;42.17;21.63;;;;;;;11.69;53.37;94187.63;4969251;28;20457;-72
2021/03/14 08:28:31;;;;;;;36.90;21.43;;;;;;;11.82;51.48;94192.34;4956001;28;20981;-72
2021/03/14 08:31:00;;;;;;;39.17;22.23;;;;;;;11.75;51.32;94188.84;4969981;28;20448;-72
2021/03/14 08:33:29;;;;;;;35.73;21.37;;;;;;;11.76;53.02;94187.69;4969903;28;20861;-71
2021/03/14 08:35:57;;;;;;;41.10;20.97;;;;;;;12.00;52.40;94187.16;4969668;28;20931;-71
2021/03/14 08:38:34;;;;;;;38.97;22.27;;;;;;;12.14;52.59;94189.19;4969791;28;20432;-70
2021/03/14 08:41:25;;;;;;;35.17;20.67;;;;;;;12.28;50.54;94191.94;4969615;28;20927;-71
2021/03/14 08:44:12;;;;;;;36.50;20.37;;;;;;;12.43;51.50;94190.16;4950756;28;20939;-71
2021/03/14 08:46:46;;;;;;;35.20;19.70;;;;;;;12.59;51.65;94187.19;4934566;29;20478;-72
2021/03/14 08:49:15;;;;;;;37.73;19.83;;;;;;;12.80;50.47;94186.53;4952983;28;20435;-71
2021/03/14 08:51:41;;;;;;;39.50;21.07;;;;;;;12.77;49.98;94188.03;4937929;29;20920;-72
2021/03/14 08:54:06;;;;;;;32.93;20.63;;;;;;;12.60;48.53;94180.69;4954026;28;20613;-73
2021/03/14 08:56:32;;;;;;;38.07;21.53;;;;;;;12.11;50.36;94181.88;4972356;28;20217;-72
2021/03/14 08:59:14;;;;;;;34.43;20.77;;;;;;;12.37;50.33;94179.00;4956721;28;20205;-73
2021/03/14 09:01:39;;;;;;;35.83;21.03;;;;;;;12.24;49.90;94175.13;5005638;28;20250;-72
2021/03/14 09:04:18;;;;;;;33.90;20.93;;;;;;;12.36;51.78;94177.47;5010362;28;20424;-72
2021/03/14 09:06:44;;;;;;;30.53;18.37;;;;;;;12.48;50.44;94179.09;5011854;28;20188;-73
2021/03/14 09:09:10;;;;;;;27.63;16.93;;;;;;;12.65;48.94;94180.31;5014473;28;20434;-73
2021/03/14 09:11:46;;;;;;;36.13;18.00;;;;;;;12.82;50.22;94174.28;5014105;28;20614;-71
2021/03/14 09:14:23;;;;;;;36.10;18.53;;;;;;;12.80;48.33;94178.50;5013888;28;20450;-73
2021/03/14 09:16:50;;;;;;;32.13;17.30;;;;;;;12.89;48.33;94170.88;5013901;28;20446;-73
2021/03/14 09:19:25;;;;;;;33.33;19.40;;;;;;;13.03;48.53;94157.53;5010067;28;20459;-72
2021/03/14 09:21:55;;;;;;;28.00;16.30;;;;;;;13.09;48.04;94141.84;5014202;28;20431;-70
2021/03/14 09:24:25;;;;;;;26.40;16.03;;;;;;;13.21;49.21;94157.63;5013024;28;20439;-73
2021/03/14 09:27:01;;;;;;;24.30;15.53;;;;;;;13.42;49.40;94151.53;5013642;28;20451;-72
2021/03/14 09:29:46;;;;;;;28.23;16.40;;;;;;;14.35;64.00;94157.69;5014288;28;20454;-74
2021/03/14 09:32:22;;;;;;;25.70;16.77;;;;;;;14.26;47.94;94152.72;5014082;28;20938;-73
2021/03/14 09:34:48;;;;;;;27.43;16.53;;;;;;;14.14;46.12;94152.34;5012532;28;20937;-72
2021/03/14 09:37:27;;;;;;;30.93;15.90;;;;;;;14.20;46.36;94140.84;5013790;28;20428;-71
2021/03/14 09:40:08;;;;;;;34.77;15.87;;;;;;;14.36;47.81;94139.66;5028664;28;20918;-71
2021/03/14 09:42:34;;;;;;;29.40;17.00;;;;;;;14.22;48.75;94140.44;5013848;28;20432;-73
2021/03/14 09:45:12;;;;;;;24.83;15.53;;;;;;;14.84;47.99;94134.56;5013558;28;20426;-72
2021/03/14 09:48:05;;;;;;;33.80;17.60;;;;;;;15.03;46.51;94122.56;5013625;28;20486;-71
2021/03/14 09:50:36;;;;;;;25.93;15.07;;;;;;;15.06;47.24;94132.56;5013582;28;20470;-74
2021/03/14 09:53:02;;;;;;;27.90;17.13;;;;;;;15.06;45.38;94132.56;5013331;28;20471;-74
2021/03/14 09:55:30;;;;;;;29.57;16.70;;;;;;;15.07;44.51;94117.94;5013591;28;20435;-74
2021/03/14 09:57:56;;;;;;;25.40;15.77;;;;;;;15.33;45.62;94127.41;5013340;28;20420;-74
2021/03/14 10:00:23;;;;;;;31.53;16.00;;;;;;;15.54;46.04;94121.13;5012234;28;20938;-73
2021/03/14 10:02:49;;;;;;;28.90;15.33;;;;;;;15.55;44.52;94120.75;5013316;28;20424;-74
2021/03/14 10:05:15;;;;;;;23.93;13.63;;;;;;;15.54;43.37;94105.78;5013368;28;20428;-72
2021/03/14 10:07:40;;;;;;;28.00;14.03;;;;;;;15.60;42.44;94111.50;5011734;28;20515;-73
2021/03/14 10:10:09;;;;;;;21.87;14.30;;;;;;;15.70;43.35;94104.50;5013155;28;20185;-72
2021/03/14 10:12:35;;;;;;;25.43;14.73;;;;;;;15.91;45.30;94108.97;5011994;28;20177;-72
2021/03/14 10:15:02;;;;;;;24.20;14.10;;;;;;;16.11;43.41;94113.41;5011627;28;20427;-72
2021/03/14 10:17:27;;;;;;;22.47;14.60;;;;;;;16.28;42.14;94110.97;5011646;28;20271;-71
2021/03/14 10:19:53;;;;;;;21.90;13.13;;;;;;;16.38;41.53;94099.28;5011638;28;20256;-71
2021/03/14 10:22:29;;;;;;;21.77;12.93;;;;;;;16.38;41.18;94100.06;4995951;28;20231;-70
2021/03/14 10:24:54;;;;;;;22.63;12.80;;;;;;;16.42;40.90;94083.84;5012765;28;20177;-74
2021/03/14 10:27:23;;;;;;;20.27;11.77;;;;;;;16.66;40.44;94095.53;5012820;28;20231;-74
2021/03/14 10:30:00;;;;;;;23.40;12.43;;;;;;;16.00;40.04;94091.19;5012538;28;20173;-72
2021/03/14 10:32:27;;;;;;;21.73;11.73;;;;;;;16.25;41.52;94088.25;5013048;28;20203;-73
2021/03/14 10:34:54;;;;;;;19.83;11.87;;;;;;;16.60;40.76;94073.63;5012364;28;20515;-74
2021/03/14 10:37:35;;;;;;;21.93;11.27;;;;;;;16.82;39.05;94082.28;5012752;28;20176;-72
2021/03/14 10:40:08;;;;;;;17.47;9.83;;;;;;;17.09;38.51;94068.84;5011292;28;20173;-73
2021/03/14 10:42:36;;;;;;;21.57;9.63;;;;;;;17.37;37.28;94073.06;5012608;28;20656;-73
2021/03/14 10:45:25;;;;;;;15.97;9.40;;;;;;;17.28;37.81;94064.72;5012476;28;20173;-76
2021/03/14 10:48:03;;;;;;;17.63;9.43;;;;;;;17.51;36.38;94057.81;4971446;28;20806;-76
2021/03/14 10:50:33;;;;;;;15.27;9.93;;;;;;;17.49;36.99;94043.97;4971266;28;20186;-76
2021/03/14 10:53:15;;;;;;;12.83;8.83;;;;;;;17.63;36.95;94046.47;4971137;28;20218;-77
2021/03/14 10:55:42;;;;;;;17.90;10.17;;;;;;;17.77;38.18;94045.50;4971341;28;20217;-79
2021/03/14 10:58:14;;;;;;;17.50;10.60;;;;;;;17.57;36.80;94032.69;4968613;28;20187;-74
2021/03/14 11:00:48;;;;;;;20.57;9.70;;;;;;;17.59;38.23;94019.53;4971072;28;20241;-76
2021/03/14 11:03:43;;;;;;;21.43;10.27;;;;;;;17.70;35.24;94022.06;4970887;28;20198;-71
2021/03/14 11:06:18;;;;;;;15.20;9.27;;;;;;;17.85;36.71;94017.22;4878718;29;20208;-78
2021/03/14 11:08:56;;;;;;;16.53;9.03;;;;;;;18.02;35.49;94009.97;4894583;29;20188;-79
2021/03/14 11:11:27;;;;;;;13.90;8.60;;;;;;;18.06;36.14;94005.25;4894552;29;20192;-74
2021/03/14 11:13:53;;;;;;;11.83;7.77;;;;;;;17.87;35.32;94002.13;4894278;29;20180;-80
2021/03/14 11:16:24;;;;;;;7.43;4.87;;;;;;;18.05;32.09;93996.38;4894486;29;20189;-77
2021/03/14 11:19:01;;;;;;;13.47;3.83;;;;;;;17.76;32.64;93982.63;4878904;29;20684;-74
2021/03/14 11:21:26;;;;;;;6.67;4.30;;;;;;;17.67;32.99;93980.44;4894788;29;20184;-71
2021/03/14 11:23:52;;;;;;;7.60;4.30;;;;;;;17.88;32.32;93970.47;4898188;29;20196;-76
2021/03/14 11:26:17;;;;;;;7.83;4.83;;;;;;;18.06;32.02;93970.91;4932457;29;20199;-72
2021/03/14 11:28:45;;;;;;;10.50;4.60;;;;;;;18.23;33.03;93963.63;4931559;29;20195;-75
2021/03/14 11:31:11;;;;;;;7.23;4.57;;;;;;;18.25;32.42;93953.19;4932594;29;20563;-76